Time;durP1;ratioP1;P1;durP2;ratioP2;P2;SDS_P1;SDS_P2;PMS_P1;PMS_P2;Temp;Humidity;BMP_temperature;BMP_pressure;BME280_temperature;BME280_humidity;BME280_pressure;Samples;Min_cycle;Max_cycle;Signal;HPM_P1;HPM_P2
2024/03/14 00:00:03;;;;;;;0.47;0.47;;;10.10;99.90;;;;;;4943564;28;20042;-77
2024/03/14 00:02:29;;;;;;;5.47;2.17;;;10.20;99.90;;;;;;4958160;28;20047;-77
2024/03/14 00:04:56;;;;;;;1.25;1.23;;;10.20;99.90;;;;;;4954226;28;20045;-77
2024/03/14 00:07:22;;;;;;;0.57;0.57;;;9.70;99.90;;;;;;4946952;28;20408;-77
2024/03/14 00:09:48;;;;;;;1.85;1.75;;;10.20;99.90;;;;;;4965252;28;20043;-77
2024/03/14 00:12:16;;;;;;;1.23;1.23;;;10.20;99.90;;;;;;4948061;28;20042;-79
2024/03/14 00:14:49;;;;;;;0.68;0.68;;;10.20;99.90;;;;;;4957847;28;20039;-77
2024/03/14 00:17:18;;;;;;;0.30;0.30;;;10.30;99.90;;;;;;4947997;28;20042;-77
2024/03/14 00:19:46;;;;;;;0.50;0.50;;;10.20;99.90;;;;;;4957994;28;20042;-76
2024/03/14 00:22:12;;;;;;;0.35;0.35;;;10.30;99.90;;;;;;4934879;28;20057;-75
2024/03/14 00:24:37;;;;;;;0.50;0.40;;;10.20;99.90;;;;;;4934393;28;20495;-75
2024/03/14 00:27:04;;;;;;;0.40;0.40;;;10.30;99.90;;;;;;4968570;28;20129;-75
2024/03/14 00:29:33;;;;;;;0.60;0.60;;;10.30;99.90;;;;;;4970956;28;20050;-75
2024/03/14 00:32:01;;;;;;;0.20;0.20;;;10.30;99.90;;;;;;4987849;28;20042;-76
2024/03/14 00:34:26;;;;;;;1.10;1.05;;;10.30;99.90;;;;;;4975204;28;20544;-75
2024/03/14 00:36:53;;;;;;;0.57;0.55;;;10.30;99.90;;;;;;4975194;28;20034;-76
2024/03/14 00:39:19;;;;;;;0.43;0.43;;;10.30;99.90;;;;;;4952870;28;20030;-77
2024/03/14 00:41:46;;;;;;;0.52;0.52;;;10.40;99.90;;;;;;4972427;28;20803;-77
2024/03/14 00:44:11;;;;;;;0.60;0.40;;;10.40;99.90;;;;;;4988863;28;20046;-76
2024/03/14 00:46:37;;;;;;;0.40;0.40;;;10.40;99.90;;;;;;4971344;28;20129;-76
2024/03/14 00:49:03;;;;;;;0.50;0.50;;;10.40;99.90;;;;;;4987982;28;20057;-76
2024/03/14 00:51:29;;;;;;;2.58;1.02;;;10.40;99.90;;;;;;4955318;28;20112;-77
2024/03/14 00:53:55;;;;;;;1.05;1.05;;;10.40;99.90;;;;;;4987578;28;20050;-76
2024/03/14 00:56:21;;;;;;;0.60;0.60;;;10.40;99.90;;;;;;4969125;28;20057;-77
2024/03/14 00:58:48;;;;;;;0.50;0.50;;;10.40;99.90;;;;;;4987858;28;20046;-77
2024/03/14 01:01:13;;;;;;;0.30;0.30;;;10.50;99.90;;;;;;4968452;28;20038;-77
2024/03/14 01:03:40;;;;;;;1.38;1.38;;;10.50;99.90;;;;;;4999910;28;20049;-77
2024/03/14 01:06:11;;;;;;;0.43;0.43;;;10.50;99.90;;;;;;4986949;28;20121;-77
2024/03/14 01:08:38;;;;;;;0.30;0.30;;;10.60;99.90;;;;;;4955944;28;20053;-76
2024/03/14 01:11:05;;;;;;;1.33;0.65;;;10.50;99.90;;;;;;4967550;28;20041;-77
2024/03/14 01:13:30;;;;;;;0.70;0.70;;;10.50;99.90;;;;;;4987094;28;20114;-77
2024/03/14 01:15:56;;;;;;;0.40;0.40;;;10.50;99.90;;;;;;4965263;28;20074;-77
2024/03/14 01:18:22;;;;;;;0.50;0.50;;;10.50;99.90;;;;;;4956232;28;20050;-77
2024/03/14 01:20:48;;;;;;;0.32;0.32;;;10.50;99.90;;;;;;4970351;28;20423;-77
2024/03/14 01:23:14;;;;;;;0.80;0.80;;;10.50;99.90;;;;;;4974749;28;20314;-76
2024/03/14 01:25:44;;;;;;;0.65;0.65;;;10.50;99.90;;;;;;4940590;28;20421;-77
2024/03/14 01:28:10;;;;;;;1.58;0.52;;;10.50;99.90;;;;;;4946026;28;20886;-76
2024/03/14 01:30:37;;;;;;;0.50;0.50;;;10.40;99.90;;;;;;4954080;28;20046;-76
2024/03/14 01:33:04;;;;;;;0.35;0.35;;;10.30;99.90;;;;;;4960378;28;20164;-77
2024/03/14 01:35:29;;;;;;;;;;;10.30;99.90;;;;;;4967603;28;20568;-77
2024/03/14 01:37:55;;;;;;;0.40;0.40;;;10.20;99.90;;;;;;4985217;28;20021;-78
2024/03/14 01:40:21;;;;;;;0.28;0.28;;;10.70;99.90;;;;;;4971692;28;20076;-77
2024/03/14 01:42:54;;;;;;;0.30;0.30;;;10.10;99.90;;;;;;4970925;28;20073;-77
2024/03/14 01:45:21;;;;;;;0.70;0.70;;;10.10;99.90;;;;;;4969699;28;20042;-78
2024/03/14 01:47:47;;;;;;;;;;;10.00;99.90;;;;;;4967908;28;20453;-78
2024/03/14 01:50:14;;;;;;;0.50;0.50;;;10.00;99.90;;;;;;4969561;28;19928;-78
2024/03/14 01:52:40;;;;;;;0.68;0.40;;;10.00;99.90;;;;;;4967090;28;20046;-77
2024/03/14 01:55:08;;;;;;;0.50;0.50;;;9.90;99.90;;;;;;4993436;28;20121;-77
2024/03/14 01:57:34;;;;;;;0.43;0.43;;;10.00;99.90;;;;;;4972732;28;20034;-76
2024/03/14 02:00:04;;;;;;;0.30;0.30;;;10.00;99.90;;;;;;4999082;28;20042;-76
2024/03/14 02:02:32;;;;;;;1.33;0.85;;;10.00;99.90;;;;;;4974867;28;20117;-76
2024/03/14 02:05:10;;;;;;;0.70;0.70;;;9.90;99.90;;;;;;4973869;28;20042;-78
2024/03/14 02:07:39;;;;;;;0.63;0.63;;;9.90;99.90;;;;;;4971911;28;20137;-77
2024/03/14 02:10:12;;;;;;;0.90;0.90;;;9.80;99.90;;;;;;4973184;28;20120;-77
2024/03/14 02:12:41;;;;;;;0.63;0.63;;;9.80;99.90;;;;;;4991021;28;20401;-77
2024/03/14 02:15:08;;;;;;;1.80;1.70;;;9.80;99.90;;;;;;4972186;28;20165;-77
2024/03/14 02:17:36;;;;;;;0.60;0.60;;;9.80;99.90;;;;;;4972024;28;20545;-77
2024/03/14 02:20:03;;;;;;;0.45;0.45;;;9.80;99.90;;;;;;4993195;28;20133;-77
2024/03/14 02:22:29;;;;;;;0.75;0.75;;;9.80;99.90;;;;;;4972271;28;20395;-77
2024/03/14 02:24:55;;;;;;;0.30;0.30;;;9.80;99.90;;;;;;4990708;28;20050;-76
2024/03/14 02:27:22;;;;;;;0.80;0.70;;;9.80;99.90;;;;;;4969799;28;20061;-77
2024/03/14 02:29:47;;;;;;;0.40;0.40;;;9.80;99.90;;;;;;4959605;28;20053;-77
2024/03/14 02:32:13;;;;;;;0.40;0.40;;;9.80;99.90;;;;;;4994707;28;20044;-77
2024/03/14 02:34:39;;;;;;;0.70;0.70;;;9.70;99.90;;;;;;4992358;28;20046;-76
2024/03/14 02:37:05;;;;;;;0.55;0.55;;;9.70;99.90;;;;;;4974432;28;20072;-77
2024/03/14 02:39:32;;;;;;;0.40;0.40;;;9.80;99.90;;;;;;4961315;28;20034;-76
2024/03/14 02:42:01;;;;;;;0.40;0.40;;;9.80;99.90;;;;;;4974529;28;20498;-77
2024/03/14 02:44:27;;;;;;;0.30;0.30;;;9.80;99.90;;;;;;4991404;28;20046;-77
2024/03/14 02:46:53;;;;;;;0.55;0.55;;;9.80;99.90;;;;;;4992002;28;20917;-77
2024/03/14 02:49:20;;;;;;;0.50;0.50;;;9.60;99.90;;;;;;4978465;28;20085;-77
2024/03/14 02:51:47;;;;;;;0.35;0.35;;;9.80;99.90;;;;;;4972348;28;20046;-77
2024/03/14 02:54:16;;;;;;;;;;;9.70;99.90;;;;;;4958088;28;20042;-78
2024/03/14 02:56:47;;;;;;;1.65;0.98;;;9.70;99.90;;;;;;4957663;28;19944;-77
2024/03/14 02:59:13;;;;;;;1.05;1.05;;;9.60;99.90;;;;;;4953254;28;20058;-77
2024/03/14 03:01:40;;;;;;;0.40;0.40;;;9.70;99.90;;;;;;4971708;28;20042;-78
2024/03/14 03:04:06;;;;;;;0.40;0.40;;;9.50;99.90;;;;;;4971423;28;20397;-77
2024/03/14 03:06:33;;;;;;;1.65;0.93;;;9.50;99.90;;;;;;4991586;28;20046;-77
2024/03/14 03:08:59;;;;;;;0.30;0.30;;;9.40;99.90;;;;;;4976808;28;20048;-76
2024/03/14 03:11:26;;;;;;;0.50;0.50;;;9.40;99.90;;;;;;4993937;28;20042;-77
2024/03/14 03:13:52;;;;;;;0.35;0.35;;;9.30;99.90;;;;;;4969170;28;20046;-77
2024/03/14 03:16:19;;;;;;;0.75;0.75;;;9.30;99.90;;;;;;4990187;28;20041;-77
2024/03/14 03:18:44;;;;;;;0.40;0.40;;;9.90;99.90;;;;;;4971780;28;20046;-77
2024/03/14 03:21:10;;;;;;;1.17;0.68;;;9.30;99.90;;;;;;4989551;28;20045;-76
2024/03/14 03:23:36;;;;;;;0.40;0.40;;;9.30;99.90;;;;;;4989106;28;20111;-78
2024/03/14 03:26:05;;;;;;;0.93;0.93;;;9.20;99.90;;;;;;4949161;28;20069;-77
2024/03/14 03:28:31;;;;;;;0.15;0.15;;;9.30;99.90;;;;;;4953859;28;20058;-77
2024/03/14 03:30:57;;;;;;;0.52;0.52;;;9.20;99.90;;;;;;4973445;28;20057;-79
2024/03/14 03:33:23;;;;;;;;;;;9.20;99.90;;;;;;4951823;28;20042;-78
2024/03/14 03:35:49;;;;;;;0.80;0.80;;;9.20;99.90;;;;;;4973307;28;19937;-78
2024/03/14 03:38:15;;;;;;;0.40;0.40;;;9.20;99.90;;;;;;4940812;28;20049;-77
2024/03/14 03:40:41;;;;;;;0.43;0.43;;;9.50;99.90;;;;;;4958685;28;20031;-76
2024/03/14 03:43:13;;;;;;;0.63;0.63;;;9.20;99.90;;;;;;4928827;28;20045;-76
2024/03/14 03:45:38;;;;;;;1.50;1.40;;;9.10;99.90;;;;;;4958440;28;20054;-77
2024/03/14 03:48:05;;;;;;;1.92;1.00;;;9.20;99.90;;;;;;4954269;28;20047;-76
2024/03/14 03:50:31;;;;;;;0.40;0.40;;;9.20;99.90;;;;;;4951553;28;20046;-75
2024/03/14 03:52:57;;;;;;;0.30;0.30;;;9.20;99.90;;;;;;4972901;28;20052;-76
2024/03/14 03:55:22;;;;;;;1.50;1.48;;;9.20;99.90;;;;;;4939811;28;20053;-76
2024/03/14 03:57:48;;;;;;;0.73;0.73;;;9.20;99.90;;;;;;4970569;28;20581;-76
2024/03/14 04:00:36;;;;;;;0.47;0.47;;;9.20;99.90;;;;;;4949033;28;20500;-76
2024/03/14 04:03:08;;;;;;;0.93;0.68;;;9.10;99.90;;;;;;4938991;28;20478;-77
2024/03/14 04:05:35;;;;;;;0.30;0.30;;;9.10;99.90;;;;;;4939112;28;20046;-76
2024/03/14 04:08:01;;;;;;;;;;;9.10;99.90;;;;;;4959818;28;20039;-76
2024/03/14 04:10:27;;;;;;;0.50;0.50;;;9.10;99.90;;;;;;4971792;28;19926;-77
2024/03/14 04:12:56;;;;;;;0.25;0.25;;;9.00;99.90;;;;;;4941585;28;20044;-76
2024/03/14 04:15:22;;;;;;;2.08;0.85;;;9.20;99.90;;;;;;4951662;28;20039;-77
2024/03/14 04:17:48;;;;;;;;;;;9.10;99.90;;;;;;4951673;28;20045;-77
2024/03/14 04:20:15;;;;;;;0.98;0.98;;;9.00;99.90;;;;;;4973539;28;19922;-77
2024/03/14 04:22:41;;;;;;;0.88;0.88;;;9.00;99.90;;;;;;4953469;28;20125;-78
2024/03/14 04:25:17;;;;;;;0.70;0.70;;;9.20;99.90;;;;;;4960986;28;20514;-78
2024/03/14 04:27:53;;;;;;;1.00;0.93;;;9.00;99.90;;;;;;4990738;28;20140;-78
2024/03/14 04:30:23;;;;;;;0.80;0.80;;;9.00;99.90;;;;;;4970051;28;20078;-78
2024/03/14 04:32:49;;;;;;;0.85;0.85;;;8.90;99.90;;;;;;4959005;28;20030;-79
2024/03/14 04:35:15;;;;;;;1.70;1.38;;;8.90;99.90;;;;;;4967939;28;20046;-78
2024/03/14 04:37:47;;;;;;;1.13;1.13;;;8.90;99.90;;;;;;4988064;28;20034;-77
2024/03/14 04:40:13;;;;;;;0.75;0.60;;;8.90;99.90;;;;;;4986101;28;20113;-78
2024/03/14 04:42:43;;;;;;;1.00;0.57;;;8.90;99.90;;;;;;4987538;28;20038;-77
2024/03/14 04:45:21;;;;;;;3.28;1.17;;;8.90;99.90;;;;;;4989495;28;20038;-77
2024/03/14 04:47:47;;;;;;;0.80;0.70;;;8.90;99.90;;;;;;4957595;28;20587;-77
2024/03/14 04:50:18;;;;;;;0.40;0.40;;;9.00;99.90;;;;;;4967904;28;20042;-77
2024/03/14 04:52:45;;;;;;;1.13;1.05;;;9.00;99.90;;;;;;4968681;28;20073;-77
2024/03/14 04:55:11;;;;;;;1.45;1.10;;;9.00;99.90;;;;;;4989447;28;20494;-77
2024/03/14 04:57:41;;;;;;;0.85;0.85;;;9.00;99.90;;;;;;4971452;28;20045;-77
2024/03/14 05:00:11;;;;;;;1.00;0.93;;;9.00;99.90;;;;;;4951908;28;20027;-76
2024/03/14 05:02:38;;;;;;;1.52;1.42;;;9.10;99.90;;;;;;4969501;28;20418;-77
2024/03/14 05:05:09;;;;;;;1.25;1.15;;;9.20;99.90;;;;;;4972923;28;20053;-77
2024/03/14 05:07:36;;;;;;;1.67;1.58;;;9.00;99.90;;;;;;4970689;28;20104;-78
2024/03/14 05:10:02;;;;;;;1.13;0.85;;;9.00;99.90;;;;;;4986314;28;20069;-77
2024/03/14 05:12:28;;;;;;;0.93;0.93;;;9.00;99.90;;;;;;4984949;28;20038;-79
2024/03/14 05:14:55;;;;;;;0.57;0.57;;;9.00;99.90;;;;;;4971777;28;20038;-78
2024/03/14 05:17:20;;;;;;;0.68;0.68;;;8.90;99.90;;;;;;4954206;28;20039;-78
2024/03/14 05:19:46;;;;;;;0.70;0.68;;;8.90;99.90;;;;;;4959867;28;20583;-78
2024/03/14 05:22:12;;;;;;;0.88;0.88;;;8.90;99.90;;;;;;4969364;28;20038;-77
2024/03/14 05:24:37;;;;;;;3.72;1.40;;;8.90;99.90;;;;;;4981443;28;20098;-76
2024/03/14 05:27:03;;;;;;;0.50;0.50;;;8.90;99.90;;;;;;4986721;28;20629;-77
2024/03/14 05:29:29;;;;;;;1.65;1.58;;;8.90;99.90;;;;;;4968637;28;20038;-78
2024/03/14 05:31:54;;;;;;;0.47;0.47;;;8.90;99.90;;;;;;4969608;28;20053;-78
2024/03/14 05:34:21;;;;;;;1.45;1.40;;;8.90;99.90;;;;;;4986828;28;20038;-77
2024/03/14 05:36:48;;;;;;;3.72;1.20;;;8.90;99.90;;;;;;4970130;28;20038;-77
2024/03/14 05:39:14;;;;;;;2.20;1.85;;;8.80;99.90;;;;;;4967487;28;20038;-77
2024/03/14 05:41:43;;;;;;;;;;;8.90;99.90;;;;;;4953521;28;20506;-78
2024/03/14 05:44:09;;;;;;;0.77;0.77;;;9.00;99.90;;;;;;4983533;28;19918;-78
2024/03/14 05:46:35;;;;;;;1.25;1.15;;;8.90;99.90;;;;;;4969077;28;20083;-78
2024/03/14 05:49:01;;;;;;;0.57;0.57;;;9.00;99.90;;;;;;4958351;28;20125;-78
2024/03/14 05:51:27;;;;;;;0.47;0.47;;;9.00;99.90;;;;;;4986560;28;20053;-79
2024/03/14 05:53:53;;;;;;;0.68;0.68;;;9.00;99.90;;;;;;4963133;28;20053;-76
2024/03/14 05:56:18;;;;;;;0.73;0.73;;;9.30;99.90;;;;;;4983716;28;20095;-76
2024/03/14 05:58:44;;;;;;;1.17;1.08;;;9.00;99.90;;;;;;4969222;28;20568;-76
2024/03/14 06:01:11;;;;;;;0.57;0.57;;;8.90;99.90;;;;;;4954270;28;20590;-77
2024/03/14 06:03:42;;;;;;;0.70;0.70;;;9.00;99.90;;;;;;4985505;28;20037;-76
2024/03/14 06:06:09;;;;;;;0.70;0.70;;;9.00;99.90;;;;;;4952209;28;20053;-78
2024/03/14 06:08:34;;;;;;;1.00;1.00;;;9.00;99.90;;;;;;4994716;28;20042;-79
2024/03/14 06:11:00;;;;;;;0.65;0.65;;;8.90;99.90;;;;;;4988884;28;20513;-78
2024/03/14 06:13:26;;;;;;;1.05;0.95;;;8.90;99.90;;;;;;4986894;28;20090;-77
2024/03/14 06:15:51;;;;;;;1.30;1.20;;;9.00;99.90;;;;;;4969599;28;20050;-78
2024/03/14 06:18:21;;;;;;;5.93;0.80;;;9.00;99.90;;;;;;4969636;28;20043;-79
2024/03/14 06:20:47;;;;;;;4.85;2.30;;;9.00;99.90;;;;;;4970946;28;20046;-77
2024/03/14 06:23:14;;;;;;;;;;;9.00;99.90;;;;;;4968385;28;20133;-77
2024/03/14 06:25:41;;;;;;;0.40;0.40;;;9.00;99.90;;;;;;4964156;28;19945;-77
2024/03/14 06:28:07;;;;;;;1.58;1.20;;;9.00;99.90;;;;;;4985509;28;20642;-80
2024/03/14 06:30:34;;;;;;;1.20;1.20;;;9.00;99.90;;;;;;4985128;28;20537;-79
2024/03/14 06:33:00;;;;;;;1.25;1.17;;;8.90;99.90;;;;;;4971059;28;20449;-78
2024/03/14 06:35:27;;;;;;;0.68;0.68;;;8.90;99.90;;;;;;4985512;28;20121;-78
2024/03/14 06:37:56;;;;;;;1.02;0.90;;;9.00;99.90;;;;;;4987769;28;20058;-78
2024/03/14 06:40:22;;;;;;;0.43;0.43;;;9.00;99.90;;;;;;4987860;28;20034;-78
2024/03/14 06:42:50;;;;;;;1.10;0.98;;;9.00;99.90;;;;;;4969040;28;21090;-77
2024/03/14 06:45:16;;;;;;;0.40;0.40;;;9.00;99.90;;;;;;4988235;28;20133;-78
2024/03/14 06:47:45;;;;;;;1.85;1.23;;;9.00;99.90;;;;;;4993238;28;20121;-78
2024/03/14 06:50:12;;;;;;;0.63;0.63;;;9.00;99.90;;;;;;4975497;28;20049;-81
2024/03/14 06:52:38;;;;;;;0.82;0.82;;;9.40;99.90;;;;;;4990242;28;20034;-82
2024/03/14 06:55:09;;;;;;;1.05;0.95;;;9.60;99.90;;;;;;4991463;28;20054;-78
2024/03/14 06:57:39;;;;;;;0.50;0.50;;;9.20;99.90;;;;;;4969785;28;20565;-79
2024/03/14 07:00:17;;;;;;;0.93;0.82;;;9.30;99.90;;;;;;4993113;28;20549;-78
2024/03/14 07:02:44;;;;;;;0.73;0.73;;;9.30;99.90;;;;;;4956776;28;20050;-79
2024/03/14 07:05:14;;;;;;;0.77;0.77;;;9.30;99.90;;;;;;4982767;28;20100;-78
2024/03/14 07:07:44;;;;;;;0.73;0.63;;;9.30;99.90;;;;;;4967811;28;20049;-77
2024/03/14 07:10:13;;;;;;;0.68;0.68;;;9.40;99.90;;;;;;4953483;28;20494;-78
2024/03/14 07:12:45;;;;;;;1.17;0.93;;;9.40;99.90;;;;;;4986053;28;20414;-78
2024/03/14 07:15:12;;;;;;;1.63;0.73;;;9.40;99.90;;;;;;4988902;28;20105;-77
2024/03/14 07:17:38;;;;;;;0.93;0.93;;;9.40;99.90;;;;;;4984324;28;20129;-78
2024/03/14 07:20:16;;;;;;;0.50;0.50;;;9.40;99.90;;;;;;4974497;28;20121;-78
2024/03/14 07:22:45;;;;;;;1.60;1.50;;;9.50;99.90;;;;;;4970098;28;20129;-79
2024/03/14 07:25:17;;;;;;;0.68;0.68;;;9.50;99.90;;;;;;4991073;28;20142;-78
2024/03/14 07:27:44;;;;;;;2.88;1.48;;;9.60;99.90;;;;;;4988523;28;20459;-76
2024/03/14 07:30:14;;;;;;;0.98;0.98;;;9.60;99.90;;;;;;4974549;28;20038;-77
2024/03/14 07:32:47;;;;;;;0.65;0.65;;;9.70;99.90;;;;;;4987077;28;20048;-76
2024/03/14 07:35:14;;;;;;;1.10;1.00;;;9.80;99.90;;;;;;4984819;28;20045;-76
2024/03/14 07:37:40;;;;;;;0.43;0.43;;;9.80;99.90;;;;;;4986375;28;20042;-77
2024/03/14 07:40:11;;;;;;;0.77;0.77;;;9.90;99.90;;;;;;4971706;28;20169;-81
2024/03/14 07:42:38;;;;;;;0.50;0.50;;;9.90;99.90;;;;;;4990273;28;20086;-77
2024/03/14 07:45:09;;;;;;;0.30;0.30;;;9.90;99.90;;;;;;4981761;28;20046;-79
2024/03/14 07:47:35;;;;;;;1.00;1.00;;;10.00;99.90;;;;;;4968378;28;20046;-78
2024/03/14 07:50:01;;;;;;;;;;;10.00;99.90;;;;;;4988413;28;20042;-78
2024/03/14 07:52:27;;;;;;;0.75;0.75;;;10.00;99.90;;;;;;4994119;28;19929;-78
2024/03/14 07:54:53;;;;;;;0.75;0.75;;;10.50;99.90;;;;;;4970308;28;20042;-78
2024/03/14 07:57:20;;;;;;;1.33;1.00;;;10.20;99.90;;;;;;4972045;28;20030;-79
2024/03/14 07:59:47;;;;;;;0.98;0.95;;;10.20;99.90;;;;;;4971942;28;20181;-77
2024/03/14 08:02:13;;;;;;;0.98;0.98;;;10.10;99.90;;;;;;4971803;28;20038;-79
2024/03/14 08:04:41;;;;;;;1.58;1.48;;;10.20;99.90;;;;;;4957336;28;20052;-78
2024/03/14 08:07:18;;;;;;;1.33;1.30;;;10.20;99.90;;;;;;4985854;28;20052;-78
2024/03/14 08:09:47;;;;;;;0.45;0.45;;;10.30;99.90;;;;;;4985820;28;20057;-78
2024/03/14 08:12:13;;;;;;;0.50;0.50;;;10.40;99.90;;;;;;4971327;28;20452;-78
2024/03/14 08:14:43;;;;;;;0.50;0.50;;;10.60;99.90;;;;;;4971428;28;20050;-78
2024/03/14 08:17:16;;;;;;;1.55;1.08;;;11.40;99.90;;;;;;4984640;28;20038;-77
2024/03/14 08:19:44;;;;;;;0.80;0.80;;;10.70;99.90;;;;;;4973139;28;20054;-78
2024/03/14 08:22:10;;;;;;;0.60;0.60;;;10.80;99.90;;;;;;4989003;28;20114;-77
2024/03/14 08:24:49;;;;;;;;;;;10.90;99.90;;;;;;4988727;28;20038;-77
2024/03/14 08:27:15;;;;;;;1.25;1.20;;;11.00;99.90;;;;;;4988018;28;19925;-78
2024/03/14 08:29:41;;;;;;;0.80;0.80;;;11.00;99.90;;;;;;4984639;28;20052;-78
2024/03/14 08:32:09;;;;;;;1.80;1.00;;;11.10;99.90;;;;;;4985755;28;20058;-80
2024/03/14 08:34:35;;;;;;;0.68;0.68;;;11.40;99.90;;;;;;4987226;28;20129;-77
2024/03/14 08:37:01;;;;;;;;;;;11.20;99.90;;;;;;4950931;28;20061;-80
2024/03/14 08:39:27;;;;;;;0.68;0.68;;;11.20;99.90;;;;;;4986998;28;19969;-78
2024/03/14 08:41:54;;;;;;;1.85;1.67;;;11.30;99.90;;;;;;4987142;28;20152;-78
2024/03/14 08:44:25;;;;;;;1.02;0.98;;;11.40;99.90;;;;;;4984894;28;20042;-79
2024/03/14 08:46:51;;;;;;;0.95;0.82;;;11.40;99.90;;;;;;4988941;28;20045;-78
2024/03/14 08:49:17;;;;;;;1.38;1.30;;;11.50;99.90;;;;;;4983206;28;20042;-78
2024/03/14 08:51:44;;;;;;;1.20;0.95;;;11.50;99.90;;;;;;4973568;28;20078;-78
2024/03/14 08:56:48;;;;;;;3.85;1.45;;;11.70;99.90;;;;;;4991619;28;20042;-77
2024/03/14 08:59:15;;;;;;;;;;;11.80;99.90;;;;;;4990993;28;20049;-77
2024/03/14 09:01:44;;;;;;;;;;;11.90;99.90;;;;;;4988713;28;20008;-77
2024/03/14 09:04:10;;;;;;;0.82;0.82;;;12.00;99.90;;;;;;4982651;28;19917;-77
2024/03/14 09:06:36;;;;;;;1.20;1.05;;;12.00;99.90;;;;;;4974953;28;20157;-77
2024/03/14 09:09:04;;;;;;;0.80;0.80;;;12.10;99.90;;;;;;4994319;28;20120;-77
2024/03/14 09:11:32;;;;;;;0.93;0.93;;;12.10;99.90;;;;;;4990102;28;20096;-76
2024/03/14 09:13:58;;;;;;;0.55;0.55;;;12.20;99.90;;;;;;4979272;28;20052;-77
2024/03/14 09:16:27;;;;;;;0.73;0.73;;;12.30;99.90;;;;;;4978158;28;20042;-76
2024/03/14 09:18:55;;;;;;;0.55;0.55;;;12.30;99.90;;;;;;4978581;28;20058;-77
2024/03/14 09:21:21;;;;;;;2.65;1.38;;;12.30;99.90;;;;;;4962143;28;20034;-77
2024/03/14 09:23:47;;;;;;;1.42;1.33;;;12.40;99.90;;;;;;4985533;28;20432;-77
2024/03/14 09:26:13;;;;;;;1.27;1.10;;;12.50;99.90;;;;;;4976051;28;20515;-77
2024/03/14 09:28:39;;;;;;;4.53;1.30;;;12.60;99.90;;;;;;4969549;28;20105;-77
2024/03/14 09:31:08;;;;;;;0.60;0.60;;;12.70;99.90;;;;;;4965992;28;20042;-76
2024/03/14 09:33:37;;;;;;;0.73;0.73;;;12.70;99.90;;;;;;4954398;28;20043;-77
2024/03/14 09:36:04;;;;;;;2.05;0.52;;;12.80;99.90;;;;;;4966661;28;20113;-76
2024/03/14 09:38:33;;;;;;;1.20;1.10;;;13.00;99.90;;;;;;4954470;28;20039;-76
2024/03/14 09:40:59;;;;;;;1.88;1.48;;;13.00;99.90;;;;;;4966401;28;20201;-78
2024/03/14 09:43:25;;;;;;;0.57;0.45;;;13.10;99.90;;;;;;4951730;28;20035;-77
2024/03/14 09:45:54;;;;;;;0.52;0.52;;;13.20;99.90;;;;;;4949782;28;20050;-77
2024/03/14 09:48:21;;;;;;;1.38;1.27;;;13.20;99.90;;;;;;4948949;28;20503;-77
2024/03/14 09:50:51;;;;;;;2.03;1.85;;;13.20;99.90;;;;;;4968099;28;20043;-77
2024/03/14 09:53:21;;;;;;;0.95;0.95;;;13.10;99.90;;;;;;4954061;28;20406;-77
2024/03/14 09:55:48;;;;;;;1.75;1.15;;;13.10;99.90;;;;;;4950866;28;20074;-77
2024/03/14 09:58:14;;;;;;;2.55;2.03;;;13.10;99.90;;;;;;4952826;28;20046;-78
2024/03/14 10:00:41;;;;;;;0.60;0.60;;;13.10;99.90;;;;;;4951707;28;20046;-78
2024/03/14 10:03:08;;;;;;;1.08;1.08;;;13.20;99.90;;;;;;4965598;28;20137;-76
2024/03/14 10:05:35;;;;;;;0.68;0.68;;;13.20;99.90;;;;;;4950475;28;20590;-79
2024/03/14 10:08:02;;;;;;;2.35;1.80;;;13.30;99.90;;;;;;4968354;28;20059;-77
2024/03/14 10:10:34;;;;;;;1.60;1.50;;;13.40;99.90;;;;;;4968792;28;20039;-77
2024/03/14 10:13:00;;;;;;;4.18;1.75;;;13.30;99.90;;;;;;4966269;28;20054;-79
2024/03/14 10:15:27;;;;;;;0.80;0.80;;;13.30;99.90;;;;;;4965400;28;20054;-77
2024/03/14 10:17:53;;;;;;;1.48;1.33;;;13.30;99.90;;;;;;4951547;28;20050;-78
2024/03/14 10:20:20;;;;;;;0.63;0.60;;;13.00;99.90;;;;;;4969493;28;20031;-77
2024/03/14 10:22:48;;;;;;;0.60;0.60;;;13.30;99.90;;;;;;4974686;28;20065;-77
2024/03/14 10:25:23;;;;;;;0.70;0.70;;;13.30;99.90;;;;;;4973217;28;20050;-77
2024/03/14 10:27:53;;;;;;;1.50;1.40;;;13.40;99.90;;;;;;4988511;28;20493;-81
2024/03/14 10:30:19;;;;;;;0.82;0.77;;;13.50;99.90;;;;;;4991547;28;20046;-79
2024/03/14 10:32:49;;;;;;;1.40;1.30;;;13.70;99.90;;;;;;4973369;28;20046;-77
2024/03/14 10:35:15;;;;;;;3.08;1.38;;;13.80;99.90;;;;;;4988452;28;20042;-78
2024/03/14 10:37:46;;;;;;;1.33;1.23;;;14.00;99.90;;;;;;4992587;28;20493;-76
2024/03/14 10:40:20;;;;;;;1.98;1.27;;;14.00;99.90;;;;;;4992253;28;20497;-77
2024/03/14 10:42:50;;;;;;;2.70;0.75;;;14.20;99.90;;;;;;4989392;28;20502;-78
2024/03/14 10:45:16;;;;;;;0.77;0.77;;;14.30;99.90;;;;;;4989531;28;20046;-77
2024/03/14 10:47:43;;;;;;;0.40;0.40;;;14.50;99.90;;;;;;4990084;28;20475;-78
2024/03/14 10:50:16;;;;;;;0.88;0.55;;;14.80;99.90;;;;;;4988166;28;20038;-76
2024/03/14 10:52:45;;;;;;;0.93;0.77;;;15.00;99.90;;;;;;4989527;28;20038;-78
2024/03/14 10:55:15;;;;;;;0.60;0.60;;;15.20;99.90;;;;;;4991873;28;20043;-78
2024/03/14 10:57:41;;;;;;;2.38;1.02;;;15.30;99.90;;;;;;4991021;28;20042;-77
2024/03/14 11:00:21;;;;;;;0.40;0.40;;;15.40;99.90;;;;;;4986382;28;20402;-76
2024/03/14 11:02:52;;;;;;;1.13;0.52;;;15.60;99.90;;;;;;4972810;28;20042;-76
2024/03/14 11:05:20;;;;;;;0.55;0.47;;;15.90;99.90;;;;;;4991115;28;20057;-79
2024/03/14 11:07:46;;;;;;;2.30;1.08;;;16.00;99.90;;;;;;4990206;28;20065;-77
2024/03/14 11:10:28;;;;;;;0.50;0.50;;;15.90;99.90;;;;;;4991458;28;20153;-77
2024/03/14 11:13:05;;;;;;;0.98;0.93;;;15.90;99.90;;;;;;4979054;28;20054;-77
2024/03/14 11:15:36;;;;;;;1.85;1.58;;;15.90;99.90;;;;;;4981423;28;20038;-78
2024/03/14 11:18:05;;;;;;;0.68;0.68;;;15.90;99.90;;;;;;4993824;28;20125;-76
2024/03/14 11:20:32;;;;;;;0.73;0.70;;;15.90;99.90;;;;;;4997123;28;20034;-77
2024/03/14 11:23:03;;;;;;;1.05;0.90;;;15.90;99.90;;;;;;4992967;28;20508;-77
2024/03/14 11:25:32;;;;;;;0.60;0.60;;;15.90;99.90;;;;;;4976874;28;20069;-77
2024/03/14 11:28:01;;;;;;;0.30;0.30;;;16.00;99.90;;;;;;4993045;28;20078;-77
2024/03/14 11:30:27;;;;;;;0.40;0.40;;;16.00;99.90;;;;;;4988633;28;20042;-78
2024/03/14 11:32:55;;;;;;;1.17;1.17;;;16.10;99.90;;;;;;4971504;28;20049;-76
2024/03/14 11:35:47;;;;;;;1.17;1.17;;;16.70;99.90;;;;;;4972307;28;20144;-78
2024/03/14 11:38:18;;;;;;;0.45;0.45;;;16.20;99.90;;;;;;4989556;28;20038;-78
2024/03/14 11:40:46;;;;;;;0.65;0.65;;;16.30;99.90;;;;;;4989906;28;20046;-79
2024/03/14 11:43:22;;;;;;;1.08;1.00;;;16.40;99.90;;;;;;4990579;28;20042;-79
2024/03/14 11:45:59;;;;;;;1.02;0.88;;;16.40;99.90;;;;;;4972275;28;20514;-77
2024/03/14 11:48:26;;;;;;;0.30;0.30;;;16.30;99.90;;;;;;4988290;28;20042;-77
2024/03/14 11:50:53;;;;;;;0.88;0.88;;;16.40;99.90;;;;;;5001469;28;20641;-77
2024/03/14 11:53:22;;;;;;;1.75;0.85;;;16.40;99.90;;;;;;4988181;28;20042;-77
2024/03/14 11:55:49;;;;;;;0.65;0.60;;;16.30;99.90;;;;;;4990094;28;20050;-77
2024/03/14 11:58:20;;;;;;;2.80;1.08;;;16.30;99.90;;;;;;4969727;28;20092;-77
2024/03/14 12:00:47;;;;;;;2.17;1.90;;;16.30;99.90;;;;;;4986179;28;20039;-77
2024/03/14 12:03:13;;;;;;;3.40;1.10;;;16.30;99.90;;;;;;4971770;28;20034;-78
2024/03/14 12:05:44;;;;;;;0.70;0.63;;;16.50;99.90;;;;;;4971911;28;20546;-77
2024/03/14 12:08:11;;;;;;;1.85;1.20;;;16.70;99.90;;;;;;4989457;28;20394;-77
2024/03/14 12:10:39;;;;;;;1.27;1.17;;;16.70;99.90;;;;;;4979726;28;20097;-77
2024/03/14 12:13:12;;;;;;;0.55;0.55;;;16.60;99.90;;;;;;4986613;28;20046;-78
2024/03/14 12:15:38;;;;;;;0.73;0.73;;;16.60;99.90;;;;;;4989143;28;20045;-78
2024/03/14 12:18:04;;;;;;;2.58;1.48;;;16.70;99.90;;;;;;4991349;28;20038;-77
2024/03/14 12:20:32;;;;;;;;;;;16.80;99.90;;;;;;4992134;28;20088;-77
2024/03/14 12:22:58;;;;;;;0.60;0.60;;;16.70;99.90;;;;;;4976898;28;19942;-78
2024/03/14 12:25:26;;;;;;;0.73;0.73;;;16.60;99.90;;;;;;4988680;28;20067;-77
2024/03/14 12:27:53;;;;;;;0.85;0.75;;;16.50;99.90;;;;;;4965511;28;20042;-78
2024/03/14 12:30:20;;;;;;;0.45;0.45;;;16.50;99.90;;;;;;4988519;28;20121;-79
2024/03/14 12:32:54;;;;;;;0.93;0.93;;;16.50;99.90;;;;;;4989533;28;20042;-77
2024/03/14 12:35:22;;;;;;;0.20;0.20;;;16.50;99.90;;;;;;4990218;28;20035;-78
2024/03/14 12:37:49;;;;;;;0.70;0.70;;;16.50;99.90;;;;;;4985710;28;20042;-78
2024/03/14 12:40:19;;;;;;;0.82;0.77;;;16.50;99.90;;;;;;4988066;28;20252;-77
2024/03/14 12:42:48;;;;;;;0.77;0.73;;;16.50;99.90;;;;;;4990329;28;20045;-78
2024/03/14 12:45:14;;;;;;;0.45;0.45;;;16.40;99.90;;;;;;4991635;28;20046;-77
2024/03/14 12:47:42;;;;;;;0.95;0.95;;;16.50;99.90;;;;;;4990146;28;20046;-77
2024/03/14 12:50:28;;;;;;;0.77;0.77;;;16.60;99.90;;;;;;4970440;28;20034;-76
2024/03/14 12:53:05;;;;;;;0.80;0.65;;;16.60;99.90;;;;;;4970144;28;20054;-79
2024/03/14 12:55:34;;;;;;;3.25;1.73;;;16.70;99.90;;;;;;4987809;28;20061;-79
2024/03/14 12:58:01;;;;;;;0.60;0.57;;;16.70;99.90;;;;;;4971170;28;20557;-79
2024/03/14 13:00:29;;;;;;;0.73;0.68;;;16.70;99.90;;;;;;4954475;28;20108;-78